Time;durP1;ratioP1;P1;durP2;ratioP2;P2;SDS_P1;SDS_P2;PMS_P1;PMS_P2;Temp;Humidity;BMP_temperature;BMP_pressure;BME280_temperature;BME280_humidity;BME280_pressure;Samples;Min_cycle;Max_cycle;Signal;HPM_P1;HPM_P2
2022/08/09 00:02:27;;;;;;;11.03;7.90;;;16.50;99.90;;;;;;5059033;28;20727;-74
2022/08/09 00:04:54;;;;;;;14.27;8.73;;;16.50;99.90;;;;;;5062329;28;20700;-74
2022/08/09 00:07:42;;;;;;;9.27;7.53;;;16.40;99.90;;;;;;5055246;28;20267;-75
2022/08/09 00:10:11;;;;;;;12.00;9.47;;;16.40;99.90;;;;;;5061095;28;20739;-74
2022/08/09 00:12:47;;;;;;;12.40;8.57;;;16.40;99.90;;;;;;5062863;28;20242;-75
2022/08/09 00:15:19;;;;;;;12.20;7.73;;;16.30;99.90;;;;;;5062720;28;20536;-74
2022/08/09 00:18:06;;;;;;;12.67;8.40;;;16.30;99.90;;;;;;5067088;28;20612;-74
2022/08/09 00:20:38;;;;;;;13.00;9.10;;;16.30;99.90;;;;;;5061641;28;20213;-73
2022/08/09 00:23:13;;;;;;;13.63;8.60;;;16.30;99.90;;;;;;5061016;28;20201;-74
2022/08/09 00:26:00;;;;;;;13.23;9.17;;;16.30;99.90;;;;;;5057816;28;20308;-74
2022/08/09 00:28:31;;;;;;;17.10;9.07;;;16.20;99.90;;;;;;5053572;28;20665;-75
2022/08/09 00:31:01;;;;;;;10.57;7.93;;;16.20;99.90;;;;;;5048738;28;20260;-74
2022/08/09 00:33:49;;;;;;;13.13;8.17;;;16.20;99.90;;;;;;5054467;28;20702;-74
2022/08/09 00:36:18;;;;;;;13.23;8.80;;;16.20;99.90;;;;;;5068043;28;20220;-74
2022/08/09 00:38:45;;;;;;;10.63;8.13;;;16.10;99.90;;;;;;5056692;28;20198;-74
2022/08/09 00:41:21;;;;;;;12.57;8.50;;;16.10;99.90;;;;;;5065422;28;20209;-74
2022/08/09 00:44:08;;;;;;;13.57;8.40;;;16.10;99.90;;;;;;5059986;28;20373;-74
2022/08/09 00:46:52;;;;;;;13.93;9.07;;;16.10;99.90;;;;;;5062625;28;20211;-75
2022/08/09 00:49:27;;;;;;;12.43;7.97;;;16.10;99.90;;;;;;5056200;28;20260;-74
2022/08/09 00:51:57;;;;;;;11.30;7.93;;;16.10;99.90;;;;;;5062591;28;20235;-75
2022/08/09 00:54:32;;;;;;;13.07;8.63;;;16.00;99.90;;;;;;5062589;28;20196;-75
2022/08/09 00:57:03;;;;;;;11.90;7.87;;;16.00;99.90;;;;;;5064202;28;20567;-74
2022/08/09 00:59:38;;;;;;;12.90;8.57;;;16.00;99.90;;;;;;5058984;28;20747;-74
2022/08/09 01:02:18;;;;;;;11.27;9.10;;;16.00;99.90;;;;;;5054077;28;20232;-73
2022/08/09 01:05:04;;;;;;;13.00;9.40;;;16.00;99.90;;;;;;5064464;28;20201;-74
2022/08/09 01:07:42;;;;;;;14.90;9.30;;;15.90;99.90;;;;;;5061260;28;20344;-75
2022/08/09 01:10:36;;;;;;;11.63;8.43;;;15.90;99.90;;;;;;5062566;28;20220;-74
2022/08/09 01:13:40;;;;;;;17.20;8.93;;;15.90;99.90;;;;;;5060013;28;20254;-75
2022/08/09 01:16:31;;;;;;;16.70;8.47;;;15.80;99.90;;;;;;5065440;28;20231;-74
2022/08/09 01:19:07;;;;;;;15.83;9.67;;;15.80;99.90;;;;;;5062227;28;20227;-75
2022/08/09 01:22:31;;;;;;;15.80;9.27;;;15.80;99.90;;;;;;5061413;28;20224;-75
2022/08/09 01:25:34;;;;;;;11.93;9.20;;;15.80;99.90;;;;;;5064950;28;20205;-73
2022/08/09 01:28:08;;;;;;;16.47;10.10;;;15.70;99.90;;;;;;5053548;28;20241;-74
2022/08/09 01:30:39;;;;;;;15.17;9.67;;;15.70;99.90;;;;;;5054582;28;20204;-74
2022/08/09 01:33:22;;;;;;;17.13;10.03;;;15.70;99.90;;;;;;5059099;28;21087;-75
2022/08/09 01:35:57;;;;;;;14.57;9.87;;;15.70;99.90;;;;;;5057063;28;20903;-75
2022/08/09 01:38:28;;;;;;;16.53;10.17;;;15.60;99.90;;;;;;5056246;28;20307;-75
2022/08/09 01:41:02;;;;;;;15.70;9.90;;;15.60;99.90;;;;;;5067604;28;20206;-74
2022/08/09 01:43:34;;;;;;;17.60;10.07;;;15.60;99.90;;;;;;5059457;28;20261;-74
2022/08/09 01:46:26;;;;;;;16.57;10.07;;;15.60;99.90;;;;;;5061713;28;20214;-74
2022/08/09 01:48:57;;;;;;;16.53;10.13;;;15.60;99.90;;;;;;5055265;28;20228;-74
2022/08/09 01:51:28;;;;;;;18.17;10.80;;;15.50;99.90;;;;;;5059156;28;20340;-74
2022/08/09 01:54:00;;;;;;;15.67;9.53;;;15.50;99.90;;;;;;5063706;28;20215;-74
2022/08/09 01:56:29;;;;;;;17.30;10.23;;;15.50;99.90;;;;;;5062985;28;20702;-74
2022/08/09 01:59:00;;;;;;;18.53;10.30;;;15.40;99.90;;;;;;5058651;28;20208;-75
2022/08/09 02:01:29;;;;;;;16.53;10.93;;;15.40;99.90;;;;;;5056806;28;20236;-75
2022/08/09 02:04:18;;;;;;;16.43;10.43;;;15.40;99.90;;;;;;5057079;28;20239;-75
2022/08/09 02:09:48;;;;;;;14.67;9.70;;;15.40;99.90;;;;;;5056207;28;20200;-74
2022/08/09 02:12:27;;;;;;;15.17;10.30;;;15.30;99.90;;;;;;5061639;28;20208;-75
2022/08/09 02:14:59;;;;;;;16.13;10.53;;;15.30;99.90;;;;;;5063835;28;20208;-75
2022/08/09 02:17:29;;;;;;;16.03;10.13;;;15.30;99.90;;;;;;5051836;28;20225;-74
2022/08/09 02:20:16;;;;;;;15.70;10.93;;;15.20;99.90;;;;;;5060759;28;20209;-74
2022/08/09 02:23:14;;;;;;;18.63;10.93;;;15.20;99.90;;;;;;5059155;28;20679;-75
2022/08/09 02:25:46;;;;;;;16.33;10.73;;;15.20;99.90;;;;;;5055901;28;20205;-74
2022/08/09 02:28:43;;;;;;;16.00;10.90;;;15.20;99.90;;;;;;5062674;28;20272;-75
2022/08/09 02:31:16;;;;;;;15.33;10.97;;;15.20;99.90;;;;;;5057933;28;20213;-75
2022/08/09 02:33:46;;;;;;;17.40;11.13;;;15.10;99.90;;;;;;5063794;28;20742;-75
2022/08/09 02:36:37;;;;;;;16.83;10.90;;;15.10;99.90;;;;;;5062593;28;20303;-73
2022/08/09 02:39:12;;;;;;;20.43;11.60;;;15.10;99.90;;;;;;5066522;28;20297;-74
2022/08/09 02:42:16;;;;;;;17.13;10.77;;;15.00;99.90;;;;;;5054784;28;20303;-74
2022/08/09 02:44:49;;;;;;;20.57;10.30;;;15.00;99.90;;;;;;5059926;28;20336;-74
2022/08/09 02:47:18;;;;;;;14.53;10.50;;;14.90;99.90;;;;;;5063776;28;20220;-75
2022/08/09 02:50:02;;;;;;;17.77;10.97;;;14.90;99.90;;;;;;5062864;28;20771;-75
2022/08/09 02:52:49;;;;;;;14.07;10.07;;;14.80;99.90;;;;;;5057677;28;20258;-74
2022/08/09 02:55:24;;;;;;;16.97;11.07;;;14.80;99.90;;;;;;5060354;28;20224;-73
2022/08/09 02:58:15;;;;;;;16.77;10.33;;;14.70;99.90;;;;;;5057795;28;20294;-74
2022/08/09 03:01:05;;;;;;;18.47;10.97;;;14.70;99.90;;;;;;5060116;28;20719;-74
2022/08/09 03:03:36;;;;;;;19.80;11.10;;;14.70;99.90;;;;;;5061943;28;20220;-76
2022/08/09 03:06:24;;;;;;;20.50;11.53;;;14.60;99.90;;;;;;5059785;28;20653;-75
2022/08/09 03:08:54;;;;;;;16.87;10.27;;;14.60;99.90;;;;;;5062772;28;20213;-73
2022/08/09 03:11:22;;;;;;;18.60;10.70;;;14.60;99.90;;;;;;5060412;28;20223;-74
2022/08/09 03:14:10;;;;;;;16.20;10.97;;;14.60;99.90;;;;;;5054236;28;20623;-74
2022/08/09 03:16:38;;;;;;;18.43;10.73;;;14.50;99.90;;;;;;5061590;28;20305;-74
2022/08/09 03:19:16;;;;;;;20.27;10.67;;;14.60;99.90;;;;;;5066325;28;20683;-74
2022/08/09 03:22:03;;;;;;;15.20;9.83;;;14.50;99.90;;;;;;5059040;28;20635;-74
2022/08/09 03:24:30;;;;;;;18.43;10.53;;;14.50;99.90;;;;;;5061681;28;20201;-75
2022/08/09 03:27:17;;;;;;;17.60;10.30;;;14.50;99.90;;;;;;5058414;28;20201;-75
2022/08/09 03:29:50;;;;;;;17.40;10.63;;;14.40;99.90;;;;;;5053836;28;20300;-75
2022/08/09 03:32:29;;;;;;;17.67;10.40;;;14.40;99.90;;;;;;5056358;28;20227;-74
2022/08/09 03:34:57;;;;;;;19.93;12.17;;;14.40;99.90;;;;;;5065363;28;20205;-75
2022/08/09 03:37:25;;;;;;;19.73;11.40;;;14.40;99.90;;;;;;5065211;28;20232;-76
2022/08/09 03:40:12;;;;;;;15.93;9.93;;;14.40;99.90;;;;;;5059294;28;20205;-75
2022/08/09 03:42:44;;;;;;;15.60;10.43;;;14.30;99.90;;;;;;5066887;28;20211;-75
2022/08/09 03:45:12;;;;;;;17.90;10.60;;;14.30;99.90;;;;;;5057570;28;20724;-73
2022/08/09 03:47:41;;;;;;;19.80;10.87;;;14.40;99.90;;;;;;5061666;28;20224;-74
2022/08/09 03:50:13;;;;;;;19.07;11.27;;;14.30;99.90;;;;;;5061018;28;20197;-74
2022/08/09 03:52:56;;;;;;;17.80;11.87;;;14.40;99.90;;;;;;5055532;28;20216;-74
2022/08/09 03:55:25;;;;;;;20.93;11.80;;;14.30;99.90;;;;;;5065733;28;20201;-74
2022/08/09 03:57:56;;;;;;;18.00;11.43;;;14.20;99.90;;;;;;5067277;28;20213;-75
2022/08/09 04:00:37;;;;;;;16.87;10.47;;;14.20;99.90;;;;;;5066413;28;20714;-74
2022/08/09 04:03:06;;;;;;;20.77;10.67;;;14.20;99.90;;;;;;5066534;28;20311;-75
2022/08/09 04:05:37;;;;;;;22.60;11.57;;;14.20;99.90;;;;;;5071005;28;20196;-74
2022/08/09 04:08:06;;;;;;;18.80;11.47;;;14.20;99.90;;;;;;5066263;28;20219;-74
2022/08/09 04:10:34;;;;;;;19.90;11.50;;;14.20;99.90;;;;;;5064746;28;20212;-74
2022/08/09 04:13:08;;;;;;;21.13;13.20;;;14.20;99.90;;;;;;5059858;28;20287;-75
2022/08/09 04:15:38;;;;;;;17.50;11.33;;;14.20;99.90;;;;;;5068370;28;20231;-74
2022/08/09 04:18:24;;;;;;;19.93;10.33;;;14.20;99.90;;;;;;5061269;28;20222;-75
2022/08/09 04:20:53;;;;;;;20.93;11.70;;;14.20;99.90;;;;;;5064464;28;20754;-74
2022/08/09 04:23:22;;;;;;;17.97;11.07;;;14.20;99.90;;;;;;5065966;28;20200;-75
2022/08/09 04:25:53;;;;;;;19.83;11.43;;;14.20;99.90;;;;;;5068636;28;20197;-74
2022/08/09 04:28:24;;;;;;;18.80;11.17;;;14.20;99.90;;;;;;5059672;28;20213;-74
2022/08/09 04:31:05;;;;;;;19.43;11.00;;;14.10;99.90;;;;;;5064483;28;20245;-75
2022/08/09 04:33:36;;;;;;;18.77;11.20;;;14.10;99.90;;;;;;5065244;28;20570;-74
2022/08/09 04:36:24;;;;;;;19.67;10.40;;;14.10;99.90;;;;;;5055453;28;20213;-74
2022/08/09 04:38:52;;;;;;;22.60;11.73;;;14.10;99.90;;;;;;5064925;28;20200;-74
2022/08/09 04:41:20;;;;;;;16.23;10.30;;;14.10;99.90;;;;;;5066015;28;20884;-75
2022/08/09 04:43:51;;;;;;;17.23;10.40;;;14.10;99.90;;;;;;5061756;28;20609;-74
2022/08/09 04:46:31;;;;;;;22.23;11.37;;;14.10;99.90;;;;;;5070903;28;20208;-78
2022/08/09 04:49:18;;;;;;;22.60;13.30;;;14.10;99.90;;;;;;5058497;28;20664;-75
2022/08/09 04:52:05;;;;;;;20.87;12.87;;;14.10;99.90;;;;;;5061009;28;20303;-75
2022/08/09 04:54:33;;;;;;;19.77;12.70;;;14.10;99.90;;;;;;5063833;28;20204;-74
2022/08/09 04:57:00;;;;;;;19.83;11.27;;;14.10;99.90;;;;;;5062443;28;20235;-74
2022/08/09 04:59:30;;;;;;;25.03;11.90;;;14.20;99.90;;;;;;5062260;28;20272;-76
2022/08/09 05:01:57;;;;;;;18.90;11.07;;;14.20;99.90;;;;;;5060850;28;20661;-74
2022/08/09 05:04:28;;;;;;;22.13;12.13;;;14.20;99.90;;;;;;5066937;28;20622;-74
2022/08/09 05:06:57;;;;;;;19.17;12.33;;;14.20;99.90;;;;;;5061667;28;20747;-74
2022/08/09 05:09:24;;;;;;;20.00;12.80;;;14.20;99.90;;;;;;5061811;28;20610;-75
2022/08/09 05:12:11;;;;;;;21.47;13.07;;;14.30;99.90;;;;;;5064332;28;20686;-74
2022/08/09 05:14:38;;;;;;;23.47;13.17;;;14.30;99.90;;;;;;5062665;28;20205;-74
2022/08/09 05:17:07;;;;;;;21.47;12.30;;;14.30;99.90;;;;;;5060404;28;20236;-75
2022/08/09 05:19:54;;;;;;;21.67;12.27;;;14.40;99.90;;;;;;5060090;28;20206;-74
2022/08/09 05:22:23;;;;;;;18.67;11.47;;;14.40;99.90;;;;;;5060708;28;20211;-75
2022/08/09 05:25:11;;;;;;;20.43;11.90;;;14.50;99.90;;;;;;5061741;28;20208;-74
2022/08/09 05:27:41;;;;;;;21.60;12.73;;;14.50;99.90;;;;;;5062038;28;20615;-76
2022/08/09 05:30:14;;;;;;;18.27;10.67;;;14.60;99.90;;;;;;5064944;28;20599;-73
2022/08/09 05:32:44;;;;;;;18.50;11.60;;;14.60;99.90;;;;;;5059174;28;20227;-74
2022/08/09 05:35:19;;;;;;;19.23;11.73;;;14.70;99.90;;;;;;5066773;28;20200;-75
2022/08/09 05:37:48;;;;;;;20.33;11.97;;;14.70;99.90;;;;;;5065335;28;20272;-76
2022/08/09 05:40:16;;;;;;;20.73;12.43;;;14.80;99.90;;;;;;5064261;28;20200;-76
2022/08/09 05:42:44;;;;;;;23.70;13.03;;;14.80;99.90;;;;;;5060042;28;20205;-75
2022/08/09 05:45:12;;;;;;;23.00;12.07;;;14.90;99.90;;;;;;5062870;28;20220;-75
2022/08/09 05:47:41;;;;;;;19.87;12.63;;;15.00;99.90;;;;;;5059075;28;20216;-75
2022/08/09 05:50:22;;;;;;;18.47;11.30;;;15.10;99.90;;;;;;5061428;28;20270;-75
2022/08/09 05:53:10;;;;;;;21.90;11.70;;;15.10;99.90;;;;;;5056946;28;20219;-74
2022/08/09 05:55:47;;;;;;;21.07;12.00;;;15.20;99.90;;;;;;5066425;28;20214;-81
2022/08/09 05:58:18;;;;;;;21.00;11.97;;;15.30;99.90;;;;;;5056601;28;20281;-75
2022/08/09 06:00:45;;;;;;;18.27;10.57;;;15.40;99.90;;;;;;5064906;28;20205;-77
2022/08/09 06:03:12;;;;;;;18.13;12.10;;;15.50;99.90;;;;;;5066014;28;20295;-77
2022/08/09 06:05:46;;;;;;;18.70;10.67;;;15.80;99.90;;;;;;5062379;28;20559;-76
2022/08/09 06:08:31;;;;;;;20.95;9.65;;;16.80;99.90;;;;;;5070672;28;20298;-76
2022/08/09 06:10:59;;;;;;;12.57;9.07;;;18.10;99.90;;;;;;5066999;28;20231;-75
2022/08/09 06:13:26;;;;;;;11.07;7.70;;;19.30;99.90;;;;;;5060977;28;20721;-77
2022/08/09 06:16:00;;;;;;;10.90;6.95;;;20.60;99.90;;;;;;5067078;28;20271;-75
2022/08/09 06:18:31;;;;;;;8.65;6.43;;;21.80;99.90;;;;;;5065898;28;20633;-75
2022/08/09 06:20:58;;;;;;;7.10;6.32;;;22.80;99.90;;;;;;5064792;28;20350;-76
2022/08/09 06:23:28;;;;;;;10.32;6.78;;;23.70;99.90;;;;;;5064637;28;20205;-78
2022/08/09 06:26:16;;;;;;;7.93;5.90;;;24.50;99.90;;;;;;5064238;28;20287;-81
2022/08/09 06:28:50;;;;;;;6.97;5.90;;;25.30;99.90;;;;;;5065125;28;20200;-77
2022/08/09 06:31:29;;;;;;;7.80;5.93;;;25.90;99.90;;;;;;5065677;28;20215;-75
2022/08/09 06:34:06;;;;;;;10.27;6.47;;;26.50;99.90;;;;;;5062634;28;20333;-77
2022/08/09 06:36:33;;;;;;;9.60;6.68;;;26.80;99.90;;;;;;5062725;28;20256;-75
2022/08/09 06:39:00;;;;;;;7.00;5.80;;;27.10;99.90;;;;;;5065411;28;20204;-79
2022/08/09 06:41:34;;;;;;;7.78;6.10;;;27.40;99.90;;;;;;5066367;28;20295;-75
2022/08/09 06:44:21;;;;;;;7.22;5.45;;;27.60;99.90;;;;;;5066218;28;20329;-77
2022/08/09 06:46:50;;;;;;;6.40;4.75;;;27.80;99.90;;;;;;5061269;28;20216;-77
2022/08/09 06:49:22;;;;;;;5.80;4.68;;;28.10;99.90;;;;;;5064214;28;20579;-77
2022/08/09 06:52:09;;;;;;;6.00;4.90;;;28.50;99.90;;;;;;5068622;28;20271;-79
2022/08/09 06:54:37;;;;;;;6.78;4.38;;;28.60;99.90;;;;;;5058030;28;20457;-79
2022/08/09 06:57:06;;;;;;;6.07;4.53;;;28.50;99.90;;;;;;5058019;28;20248;-79
2022/08/09 06:59:34;;;;;;;6.63;5.03;;;28.50;99.90;;;;;;5060449;28;20303;-78
2022/08/09 07:02:20;;;;;;;6.30;4.65;;;28.60;99.90;;;;;;5064063;28;20224;-78
2022/08/09 07:04:55;;;;;;;5.18;4.20;;;28.60;99.90;;;;;;5063166;28;20289;-78
2022/08/09 07:07:21;;;;;;;6.38;3.90;;;28.80;99.90;;;;;;5065000;28;20261;-79
2022/08/09 07:10:09;;;;;;;6.47;4.05;;;29.00;99.90;;;;;;5066261;28;20196;-79
2022/08/09 07:12:55;;;;;;;6.25;4.63;;;29.30;99.90;;;;;;5061642;28;20221;-80
2022/08/09 07:15:23;;;;;;;6.90;4.88;;;29.80;99.90;;;;;;5062577;28;20557;-78
2022/08/09 07:18:10;;;;;;;7.68;4.57;;;29.80;99.90;;;;;;5063943;28;20319;-77
2022/08/09 07:20:39;;;;;;;5.53;4.25;;;29.50;99.90;;;;;;5064049;28;20204;-78
2022/08/09 07:23:09;;;;;;;4.85;3.85;;;29.50;99.90;;;;;;5066856;28;20792;-78
2022/08/09 07:25:46;;;;;;;4.47;3.55;;;29.60;99.90;;;;;;5068434;28;20288;-78
2022/08/09 07:28:13;;;;;;;5.78;4.00;;;29.70;99.80;;;;;;5066226;28;20212;-78
2022/08/09 07:30:52;;;;;;;4.90;3.83;;;29.90;99.60;;;;;;5062909;28;20200;-79
2022/08/09 07:33:20;;;;;;;6.05;3.60;;;29.90;99.20;;;;;;5066891;28;20220;-77
2022/08/09 07:35:48;;;;;;;4.80;3.17;;;29.60;99.00;;;;;;5063140;28;20224;-78
2022/08/09 07:38:20;;;;;;;3.63;3.25;;;29.60;99.20;;;;;;5063180;28;20289;-78
2022/08/09 07:40:49;;;;;;;3.72;3.13;;;29.80;98.90;;;;;;5061468;28;20206;-80
2022/08/09 07:43:36;;;;;;;4.15;2.60;;;29.90;98.30;;;;;;5060631;28;20200;-79
2022/08/09 07:46:21;;;;;;;3.80;2.65;;;29.90;97.70;;;;;;5063699;28;20201;-79
2022/08/09 07:48:53;;;;;;;2.95;2.75;;;29.80;97.80;;;;;;5066579;28;20783;-78
2022/08/09 07:51:26;;;;;;;5.03;2.97;;;29.80;97.80;;;;;;5067662;28;20232;-80
2022/08/09 07:54:14;;;;;;;3.08;2.35;;;29.80;97.60;;;;;;5066685;28;20274;-78
2022/08/09 07:56:44;;;;;;;1.92;1.80;;;29.80;97.60;;;;;;5060201;28;20223;-78
2022/08/09 07:59:19;;;;;;;4.15;2.08;;;29.70;97.40;;;;;;5061475;28;20208;-77
2022/08/09 08:02:06;;;;;;;2.90;1.83;;;29.80;97.10;;;;;;5067499;28;20311;-77
2022/08/09 08:04:35;;;;;;;3.13;2.08;;;29.70;97.10;;;;;;5067169;28;20713;-78
2022/08/09 08:07:03;;;;;;;2.65;1.77;;;29.70;97.20;;;;;;5068838;28;20603;-77
2022/08/09 08:09:51;;;;;;;2.05;1.73;;;29.60;97.20;;;;;;5067650;28;20566;-78
2022/08/09 08:12:33;;;;;;;2.20;2.00;;;29.80;96.80;;;;;;5060824;28;20215;-78
2022/08/09 08:15:00;;;;;;;2.45;1.70;;;29.80;96.70;;;;;;5058359;28;20348;-78
2022/08/09 08:17:27;;;;;;;3.75;1.80;;;30.00;96.20;;;;;;5061305;28;20612;-79
2022/08/09 08:20:14;;;;;;;3.47;2.30;;;29.80;96.10;;;;;;5060835;28;20646;-79
2022/08/09 08:22:41;;;;;;;2.38;1.67;;;29.80;96.40;;;;;;5061137;28;20266;-78
2022/08/09 08:25:09;;;;;;;3.10;1.70;;;29.80;96.20;;;;;;5064407;28;20236;-78
2022/08/09 08:27:40;;;;;;;3.50;2.00;;;29.90;96.70;;;;;;5061175;28;20231;-79
2022/08/09 08:30:10;;;;;;;2.20;1.90;;;30.00;96.20;;;;;;5067283;28;20201;-78
2022/08/09 08:32:37;;;;;;;6.70;2.15;;;30.00;96.80;;;;;;5060934;28;20217;-78
2022/08/09 08:35:19;;;;;;;3.22;1.50;;;29.90;96.80;;;;;;5061047;28;20212;-78
2022/08/09 08:37:49;;;;;;;2.05;1.40;;;30.00;96.10;;;;;;5061277;28;20236;-77
2022/08/09 08:40:28;;;;;;;1.77;1.25;;;30.10;95.30;;;;;;5059035;28;20204;-79
2022/08/09 08:42:56;;;;;;;2.50;1.10;;;30.20;95.10;;;;;;5058881;28;20606;-79
2022/08/09 08:45:41;;;;;;;2.55;1.10;;;30.10;95.00;;;;;;5064899;28;20228;-77
2022/08/09 08:48:19;;;;;;;1.58;0.82;;;29.90;95.00;;;;;;5065255;28;20228;-77
2022/08/09 08:50:46;;;;;;;1.10;0.95;;;29.80;95.20;;;;;;5065132;28;20200;-80
2022/08/09 08:53:18;;;;;;;2.05;0.98;;;30.00;94.70;;;;;;5065565;28;20207;-77
2022/08/09 08:55:47;;;;;;;1.50;1.27;;;29.90;94.30;;;;;;5061946;28;20201;-77
2022/08/09 08:58:19;;;;;;;1.52;1.17;;;29.90;93.90;;;;;;5057460;28;20235;-80
2022/08/09 09:00:54;;;;;;;4.22;1.52;;;29.90;93.70;;;;;;5064723;28;20196;-78
2022/08/09 09:03:28;;;;;;;2.55;1.13;;;29.80;94.20;;;;;;5067383;28;20311;-78
2022/08/09 09:06:04;;;;;;;3.00;1.38;;;29.90;94.60;;;;;;5061562;28;20606;-81
2022/08/09 09:08:35;;;;;;;2.53;1.50;;;30.00;94.50;;;;;;5065194;28;20200;-79
2022/08/09 09:11:10;;;;;;;2.35;1.20;;;30.00;94.20;;;;;;5061062;28;20282;-79
2022/08/09 09:13:45;;;;;;;1.35;1.25;;;29.90;94.50;;;;;;5060054;28;20259;-78
2022/08/09 09:16:33;;;;;;;2.47;1.40;;;29.70;93.80;;;;;;5059040;28;20270;-77
2022/08/09 09:19:06;;;;;;;3.13;1.42;;;29.40;93.90;;;;;;5062073;28;20232;-77
2022/08/09 09:22:01;;;;;;;2.45;1.23;;;29.20;94.60;;;;;;5061703;28;20212;-79
2022/08/09 09:24:34;;;;;;;1.27;0.90;;;29.20;94.30;;;;;;5064898;28;20208;-79
2022/08/09 09:27:05;;;;;;;1.30;1.05;;;29.40;93.50;;;;;;5061667;28;20583;-79
2022/08/09 09:29:40;;;;;;;2.30;1.20;;;29.30;93.40;;;;;;5058437;28;20205;-79
2022/08/09 09:32:30;;;;;;;1.60;1.10;;;29.20;93.90;;;;;;5062034;28;20244;-79
2022/08/09 09:35:11;;;;;;;1.27;0.80;;;29.10;93.50;;;;;;5059695;28;20213;-78
2022/08/09 09:37:44;;;;;;;2.45;0.95;;;29.00;93.00;;;;;;5061460;28;20320;-78
2022/08/09 09:40:11;;;;;;;1.00;0.80;;;29.00;93.30;;;;;;5067354;28;20232;-76
2022/08/09 09:42:39;;;;;;;3.50;0.82;;;29.00;92.90;;;;;;5064005;28;20676;-79
2022/08/09 09:45:12;;;;;;;1.73;0.85;;;28.90;93.00;;;;;;5061216;28;20205;-77
2022/08/09 09:47:53;;;;;;;2.30;0.90;;;28.90;92.90;;;;;;5069235;28;20240;-77
2022/08/09 09:50:42;;;;;;;2.08;0.85;;;28.70;93.30;;;;;;5064429;28;20619;-79
2022/08/09 09:53:24;;;;;;;1.42;0.90;;;28.60;93.00;;;;;;5064540;28;20200;-79
2022/08/09 09:56:11;;;;;;;2.83;0.82;;;28.30;92.70;;;;;;5063605;28;20367;-79
2022/08/09 09:58:57;;;;;;;1.75;0.93;;;28.30;93.20;;;;;;5059137;28;20697;-78
2022/08/09 10:01:24;;;;;;;2.38;0.70;;;28.30;92.90;;;;;;5063248;28;20290;-77
2022/08/09 10:04:11;;;;;;;1.90;0.95;;;28.30;93.10;;;;;;5066513;28;20307;-78
2022/08/09 10:06:44;;;;;;;2.47;0.85;;;28.20;93.30;;;;;;5059068;28;20204;-78
2022/08/09 10:09:17;;;;;;;3.15;0.80;;;28.20;92.70;;;;;;5065144;28;20231;-78
2022/08/09 10:12:00;;;;;;;0.95;0.68;;;28.10;92.50;;;;;;5064203;28;20228;-77
2022/08/09 10:14:47;;;;;;;0.50;0.50;;;28.10;92.70;;;;;;5058808;28;20300;-78
2022/08/09 10:17:18;;;;;;;0.90;0.60;;;28.20;92.80;;;;;;5061752;28;20236;-78
2022/08/09 10:20:16;;;;;;;1.02;0.70;;;28.30;92.50;;;;;;5063962;28;20312;-78
2022/08/09 10:23:13;;;;;;;1.88;0.90;;;28.40;92.50;;;;;;5058898;28;20275;-80
2022/08/09 10:25:48;;;;;;;1.58;0.70;;;28.30;91.80;;;;;;5063673;28;20230;-78
2022/08/09 10:28:36;;;;;;;1.60;0.80;;;28.40;92.00;;;;;;5061823;28;20201;-78
2022/08/09 10:31:05;;;;;;;1.42;0.73;;;28.40;91.70;;;;;;5059833;28;20205;-78
2022/08/09 10:33:52;;;;;;;2.30;0.80;;;28.40;91.30;;;;;;5062095;28;20238;-77
2022/08/09 10:36:39;;;;;;;1.88;1.00;;;28.50;91.00;;;;;;5061528;28;20311;-80
2022/08/09 10:39:08;;;;;;;1.88;0.68;;;28.40;91.30;;;;;;5064280;28;20239;-76
2022/08/09 10:41:40;;;;;;;1.77;0.70;;;28.50;91.80;;;;;;5060904;28;20259;-77
2022/08/09 10:44:09;;;;;;;1.65;0.93;;;28.40;92.00;;;;;;5057747;28;20213;-79
2022/08/09 10:47:06;;;;;;;1.45;0.82;;;28.30;91.50;;;;;;5066403;28;20345;-76
2022/08/09 10:50:04;;;;;;;1.15;0.70;;;28.20;91.20;;;;;;5061698;28;20240;-79
2022/08/09 10:52:59;;;;;;;0.80;0.57;;;28.20;91.70;;;;;;5069166;28;20193;-81
2022/08/09 10:55:28;;;;;;;1.55;0.73;;;28.30;91.50;;;;;;5062912;28;20204;-79
2022/08/09 10:58:32;;;;;;;2.28;1.10;;;28.30;91.10;;;;;;5065713;28;20248;-77
2022/08/09 11:00:59;;;;;;;1.08;0.98;;;28.30;91.60;;;;;;5063597;28;20571;-78
2022/08/09 11:04:19;;;;;;;1.52;0.75;;;28.10;91.50;;;;;;5066701;28;20263;-78
2022/08/09 11:06:57;;;;;;;0.82;0.63;;;28.00;92.00;;;;;;5062880;28;20241;-76
2022/08/09 11:09:48;;;;;;;3.65;1.00;;;28.00;91.50;;;;;;5067565;28;20206;-77
2022/08/09 11:12:23;;;;;;;2.05;0.80;;;28.10;92.10;;;;;;5064137;28;20567;-79
2022/08/09 11:15:22;;;;;;;1.60;0.80;;;28.10;91.20;;;;;;5062869;28;20216;-78
2022/08/09 11:17:59;;;;;;;2.53;0.80;;;28.20;92.00;;;;;;5066755;28;20746;-79
2022/08/09 11:20:41;;;;;;;1.48;0.80;;;28.30;92.20;;;;;;5066879;28;20205;-78
2022/08/09 11:23:09;;;;;;;1.35;0.93;;;28.30;91.50;;;;;;5061086;28;20306;-81
2022/08/09 11:25:39;;;;;;;2.97;1.00;;;28.20;91.50;;;;;;5066769;28;20188;-77
2022/08/09 11:28:32;;;;;;;2.22;0.90;;;28.20;92.10;;;;;;5058973;28;20350;-78
2022/08/09 11:31:40;;;;;;;2.80;0.75;;;28.30;91.90;;;;;;5057846;28;20307;-79
2022/08/09 11:34:26;;;;;;;1.63;0.80;;;28.40;92.00;;;;;;5061100;28;20546;-77
2022/08/09 11:36:54;;;;;;;0.70;0.70;;;28.50;91.90;;;;;;5066458;28;20273;-78
2022/08/09 11:39:23;;;;;;;2.40;0.70;;;28.50;91.40;;;;;;5066051;28;20217;-77
2022/08/09 11:41:50;;;;;;;1.95;0.80;;;28.60;91.70;;;;;;5064671;28;20212;-76
2022/08/09 11:44:43;;;;;;;2.85;1.15;;;28.60;91.00;;;;;;5065403;28;20687;-80
2022/08/09 11:47:10;;;;;;;3.05;0.93;;;28.70;91.20;;;;;;5061057;28;20279;-78
2022/08/09 11:50:01;;;;;;;0.88;0.88;;;28.60;91.50;;;;;;5069224;28;20236;-78
2022/08/09 11:53:01;;;;;;;2.90;0.95;;;28.80;91.30;;;;;;5066985;28;20272;-78
2022/08/09 11:55:50;;;;;;;1.35;0.85;;;28.80;91.20;;;;;;5068592;28;20233;-78
2022/08/09 11:58:29;;;;;;;2.08;0.73;;;28.70;91.00;;;;;;5060861;28;20217;-78
2022/08/09 12:01:07;;;;;;;2.00;1.00;;;28.70;90.60;;;;;;5062315;28;20712;-78
2022/08/09 12:04:02;;;;;;;1.63;0.80;;;28.70;90.70;;;;;;5064721;28;20224;-79
2022/08/09 12:06:32;;;;;;;1.58;0.75;;;28.80;90.90;;;;;;5068408;28;20539;-79
2022/08/09 12:09:09;;;;;;;1.45;0.80;;;28.80;90.80;;;;;;5068019;28;20212;-78
2022/08/09 12:11:55;;;;;;;1.27;0.80;;;29.00;90.90;;;;;;5059789;28;20209;-78
2022/08/09 12:14:31;;;;;;;2.22;0.88;;;29.10;91.40;;;;;;5062365;28;20664;-78
2022/08/09 12:17:18;;;;;;;0.85;0.70;;;29.10;91.10;;;;;;5059198;28;20277;-78
2022/08/09 12:20:14;;;;;;;2.28;0.80;;;29.20;90.90;;;;;;5061689;28;20547;-79
2022/08/09 12:22:46;;;;;;;2.13;0.70;;;29.40;88.80;;;;;;5062944;28;20211;-78
2022/08/09 12:25:18;;;;;;;0.60;0.60;;;29.30;87.50;;;;;;5067645;28;20273;-79
2022/08/09 12:28:15;;;;;;;1.23;0.80;;;29.20;86.90;;;;;;5061899;28;20205;-78
2022/08/09 12:31:02;;;;;;;1.38;0.90;;;29.10;88.80;;;;;;5065928;28;20197;-78
2022/08/09 12:33:49;;;;;;;1.08;0.82;;;29.20;90.30;;;;;;5064134;28;20529;-79
2022/08/09 12:36:27;;;;;;;2.40;0.65;;;29.40;88.90;;;;;;5060040;28;20235;-78
2022/08/09 12:38:59;;;;;;;1.98;0.68;;;29.60;89.20;;;;;;5062106;28;20224;-79
2022/08/09 12:41:29;;;;;;;2.63;0.63;;;29.60;88.10;;;;;;5065217;28;20193;-78
2022/08/09 12:44:04;;;;;;;1.33;0.80;;;29.60;87.80;;;;;;5057197;28;20208;-79
2022/08/09 12:46:38;;;;;;;0.93;0.70;;;29.60;88.40;;;;;;5061944;28;20216;-78
2022/08/09 12:49:07;;;;;;;0.65;0.60;;;29.60;87.40;;;;;;5064203;28;20290;-77
2022/08/09 12:51:34;;;;;;;2.63;0.75;;;29.40;87.10;;;;;;5053659;28;20215;-77
2022/08/09 12:54:21;;;;;;;1.70;0.70;;;29.20;87.30;;;;;;5060143;28;20200;-78
2022/08/09 12:56:50;;;;;;;0.93;0.82;;;29.20;88.10;;;;;;5061147;28;20209;-77
2022/08/09 12:59:23;;;;;;;1.25;0.70;;;29.30;87.70;;;;;;5057743;28;20703;-78
2022/08/09 13:02:10;;;;;;;1.23;0.65;;;29.40;87.50;;;;;;5068297;28;20228;-76
2022/08/09 13:04:40;;;;;;;0.93;0.80;;;29.50;87.80;;;;;;5068888;28;20564;-78
2022/08/09 13:07:15;;;;;;;1.45;0.60;;;29.60;86.40;;;;;;5060812;28;20271;-76
2022/08/09 13:09:42;;;;;;;2.15;1.23;;;29.70;84.90;;;;;;5069133;28;20242;-77
2022/08/09 13:12:22;;;;;;;1.65;0.68;;;29.70;85.50;;;;;;5071127;28;20228;-78
2022/08/09 13:14:49;;;;;;;1.02;0.73;;;29.50;84.70;;;;;;5076679;28;20196;-79
2022/08/09 13:17:20;;;;;;;1.65;0.77;;;29.40;86.40;;;;;;5060323;28;20238;-80
2022/08/09 13:20:08;;;;;;;1.48;0.75;;;29.40;86.10;;;;;;5068717;28;20201;-77
2022/08/09 13:22:50;;;;;;;0.70;0.70;;;29.40;85.90;;;;;;5063579;28;20549;-78
2022/08/09 13:25:43;;;;;;;1.33;0.70;;;29.40;86.30;;;;;;5066337;28;20205;-76
2022/08/09 13:28:22;;;;;;;0.70;0.70;;;29.30;85.90;;;;;;5067536;28;20208;-79
2022/08/09 13:31:06;;;;;;;5.43;1.02;;;29.40;85.00;;;;;;5065039;28;20200;-77
2022/08/09 13:33:53;;;;;;;0.95;0.70;;;29.20;82.80;;;;;;5067543;28;20239;-78